createdAt,value
2023-04-07T00:00:51.072Z,17.00
2023-04-07T00:01:51.119Z,16.80
2023-04-07T00:02:51.114Z,17.80
2023-04-07T00:03:51.254Z,16.30
2023-04-07T00:04:51.095Z,17.60
2023-04-07T00:05:51.002Z,16.80
2023-04-07T00:06:51.016Z,17.50
2023-04-07T00:07:56.306Z,17.00
2023-04-07T00:08:51.979Z,17.80
2023-04-07T00:09:50.995Z,18.80
2023-04-07T00:10:50.974Z,17.80
2023-04-07T00:11:50.942Z,17.80
2023-04-07T00:12:50.940Z,18.00
2023-04-07T00:13:50.966Z,18.90
2023-04-07T00:14:50.912Z,17.60
2023-04-07T00:15:50.984Z,18.70
2023-04-07T00:16:51.892Z,17.10
2023-04-07T00:17:50.983Z,17.80
2023-04-07T00:18:50.919Z,18.20
2023-04-07T00:19:50.868Z,18.70
2023-04-07T00:20:50.847Z,18.00
2023-04-07T00:21:50.826Z,17.60
2023-04-07T00:22:50.829Z,18.40
2023-04-07T00:23:50.826Z,17.90
2023-04-07T00:24:50.830Z,18.50
2023-04-07T00:25:50.850Z,18.70
2023-04-07T00:26:50.826Z,19.80
2023-04-07T00:27:50.782Z,18.70
2023-04-07T00:28:50.758Z,18.30
2023-04-07T00:29:50.819Z,18.40
2023-04-07T00:30:52.217Z,18.50
2023-04-07T00:31:50.718Z,19.50
2023-04-07T00:32:50.785Z,18.80
2023-04-07T00:33:50.722Z,18.40
2023-04-07T00:34:50.711Z,18.10
2023-04-07T00:35:52.191Z,18.90
2023-04-07T00:36:50.690Z,19.80
2023-04-07T00:37:50.712Z,18.90
2023-04-07T00:38:50.680Z,19.20
2023-04-07T00:39:50.638Z,19.10
2023-04-07T00:40:50.624Z,19.90
2023-04-07T00:41:50.624Z,19.60
2023-04-07T00:42:50.610Z,19.80
2023-04-07T00:43:50.640Z,18.30
2023-04-07T00:44:50.637Z,18.80
2023-04-07T00:45:50.572Z,19.60
2023-04-07T00:46:50.610Z,19.30
2023-04-07T00:47:50.621Z,19.10
2023-04-07T00:48:50.564Z,18.50
2023-04-07T00:49:50.524Z,19.00
2023-04-07T00:50:50.566Z,18.40
2023-04-07T00:51:50.508Z,19.00
2023-04-07T00:52:50.495Z,18.10
2023-04-07T00:53:50.497Z,18.40
2023-04-07T00:54:50.466Z,18.70
2023-04-07T00:55:50.461Z,18.40
2023-04-07T00:56:50.479Z,17.70
2023-04-07T00:57:50.462Z,18.20
2023-04-07T00:58:50.428Z,18.40
2023-04-07T00:59:50.426Z,17.00
2023-04-07T01:00:50.491Z,18.10
2023-04-07T01:01:50.470Z,17.60
2023-04-07T01:02:50.644Z,18.20
2023-04-07T01:03:50.492Z,18.50
2023-04-07T01:04:50.492Z,18.50
2023-04-07T01:05:50.344Z,17.60
2023-04-07T01:06:50.332Z,18.30
2023-04-07T01:07:50.356Z,18.10
2023-04-07T01:08:50.335Z,19.10
2023-04-07T01:09:50.297Z,18.70
2023-04-07T01:10:50.310Z,19.20
2023-04-07T01:11:51.804Z,17.80
2023-04-07T01:12:50.271Z,18.70
2023-04-07T01:13:50.326Z,18.50
2023-04-07T01:14:50.257Z,17.70
2023-04-07T01:15:50.263Z,18.60
2023-04-07T01:16:50.592Z,18.50
2023-04-07T01:17:50.244Z,18.30
2023-04-07T01:18:50.217Z,18.30
2023-04-07T01:19:50.214Z,18.30
2023-04-07T01:20:50.185Z,18.10
2023-04-07T01:21:50.170Z,18.80
2023-04-07T01:22:50.190Z,18.80
2023-04-07T01:23:50.170Z,19.50
2023-04-07T01:24:50.157Z,19.50
2023-04-07T01:25:50.139Z,19.20
2023-04-07T01:26:50.112Z,19.80
2023-04-07T01:27:50.102Z,20.50
2023-04-07T01:28:50.115Z,20.40
2023-04-07T01:29:50.089Z,19.80
2023-04-07T01:30:50.116Z,20.80
2023-04-07T01:31:51.075Z,19.90
2023-04-07T01:32:50.099Z,19.30
2023-04-07T01:33:50.863Z,21.00
2023-04-07T01:34:50.998Z,21.10
2023-04-07T01:35:50.003Z,20.90
2023-04-07T01:36:50.013Z,21.40
2023-04-07T01:37:50.621Z,20.50
2023-04-07T01:38:49.999Z,21.20
2023-04-07T01:39:50.930Z,21.50
2023-04-07T01:40:50.076Z,20.70
2023-04-07T01:41:49.951Z,21.60
2023-04-07T01:42:49.954Z,21.10
2023-04-07T01:43:50.935Z,19.90
2023-04-07T01:44:49.922Z,19.10
2023-04-07T01:45:49.941Z,21.10
2023-04-07T01:46:49.923Z,20.70
2023-04-07T01:47:51.014Z,20.30
2023-04-07T01:48:49.945Z,19.20
2023-04-07T01:49:50.837Z,19.30
2023-04-07T01:50:51.337Z,20.10
2023-04-07T01:51:49.949Z,20.10
2023-04-07T01:52:49.828Z,19.70
2023-04-07T01:53:50.080Z,21.70
2023-04-07T01:54:49.852Z,19.20
2023-04-07T01:55:49.790Z,21.40
2023-04-07T01:56:49.833Z,20.80
2023-04-07T01:57:50.725Z,21.50
2023-04-07T01:58:49.776Z,21.20
2023-04-07T01:59:49.759Z,21.80
2023-04-07T02:00:49.787Z,20.50
2023-04-07T02:01:50.113Z,21.10
2023-04-07T02:02:49.941Z,20.70
2023-04-07T02:03:49.827Z,21.20
2023-04-07T02:04:49.713Z,22.10
2023-04-07T02:05:50.010Z,21.80
2023-04-07T02:06:49.679Z,19.70
2023-04-07T02:07:49.680Z,20.20
2023-04-07T02:08:49.692Z,20.60
2023-04-07T02:09:49.662Z,20.60
2023-04-07T02:10:49.647Z,20.40
2023-04-07T02:11:49.663Z,20.50
2023-04-07T02:12:49.672Z,19.60
2023-04-07T02:13:49.609Z,19.70
2023-04-07T02:14:49.598Z,20.40
2023-04-07T02:15:49.593Z,20.00
2023-04-07T02:16:49.644Z,20.40
2023-04-07T02:17:49.615Z,20.60
2023-04-07T02:18:49.563Z,20.30
2023-04-07T02:19:49.622Z,20.90
2023-04-07T02:20:49.620Z,20.30
2023-04-07T02:21:49.530Z,20.30
2023-04-07T02:22:49.526Z,20.00
2023-04-07T02:23:50.985Z,19.10
2023-04-07T02:24:49.494Z,20.20
2023-04-07T02:25:49.469Z,19.40
2023-04-07T02:26:49.494Z,19.50
2023-04-07T02:27:50.000Z,20.10
2023-04-07T02:28:50.519Z,21.00
2023-04-07T02:29:49.429Z,20.50
2023-04-07T02:30:49.422Z,20.50
2023-04-07T02:31:49.451Z,20.00
2023-04-07T02:32:49.566Z,19.70
2023-04-07T02:33:49.448Z,20.10
2023-04-07T02:34:49.376Z,21.00
2023-04-07T02:35:49.349Z,20.70
2023-04-07T02:36:49.435Z,20.00
2023-04-07T02:37:49.368Z,19.30
2023-04-07T02:38:49.337Z,21.10
2023-04-07T02:39:49.332Z,20.90
2023-04-07T02:40:49.363Z,20.20
2023-04-07T02:41:49.331Z,20.80
2023-04-07T02:42:50.239Z,22.00
2023-04-07T02:43:49.269Z,19.80
2023-04-07T02:44:49.329Z,20.20
2023-04-07T02:45:49.285Z,18.70
2023-04-07T02:46:49.276Z,19.90
2023-04-07T02:47:49.288Z,20.20
2023-04-07T02:48:49.234Z,18.60
2023-04-07T02:49:49.216Z,20.40
2023-04-07T02:50:49.208Z,18.40
2023-04-07T02:51:49.200Z,18.40
2023-04-07T02:52:49.175Z,18.70
2023-04-07T02:53:49.160Z,18.50
2023-04-07T02:54:49.161Z,17.80
2023-04-07T02:55:49.144Z,18.20
2023-04-07T02:56:49.157Z,16.90
2023-04-07T02:57:49.091Z,17.10
2023-04-07T02:58:49.097Z,16.90
2023-04-07T02:59:49.088Z,17.00
2023-04-07T03:00:49.715Z,16.60
2023-04-07T03:01:49.156Z,17.90
2023-04-07T03:02:49.179Z,16.50
2023-04-07T03:03:49.083Z,16.70
2023-04-07T03:04:50.540Z,16.80
2023-04-07T03:05:49.021Z,14.80
2023-04-07T03:06:49.012Z,15.90
2023-04-07T03:07:49.019Z,15.80
2023-04-07T03:08:49.025Z,15.40
2023-04-07T03:09:49.792Z,15.80
2023-04-07T03:10:54.652Z,15.50
2023-04-07T03:11:50.411Z,15.40
2023-04-07T03:12:48.960Z,16.50
2023-04-07T03:13:49.144Z,15.90
2023-04-07T03:14:48.943Z,15.30
2023-04-07T03:15:48.936Z,15.70
2023-04-07T03:16:48.933Z,15.80
2023-04-07T03:17:48.909Z,15.50
2023-04-07T03:18:48.905Z,15.00
2023-04-07T03:19:48.870Z,15.50
2023-04-07T03:20:48.948Z,15.80
2023-04-07T03:21:48.872Z,14.90
2023-04-07T03:22:48.840Z,15.50
2023-04-07T03:23:48.822Z,15.20
2023-04-07T03:24:48.860Z,16.10
2023-04-07T03:25:48.887Z,15.90
2023-04-07T03:26:48.817Z,16.30
2023-04-07T03:27:48.784Z,15.20
2023-04-07T03:28:48.784Z,15.70
2023-04-07T03:29:50.232Z,14.90
2023-04-07T03:30:48.794Z,15.20
2023-04-07T03:31:48.768Z,14.80
2023-04-07T03:32:48.749Z,14.90
2023-04-07T03:33:48.730Z,14.80
2023-04-07T03:34:48.718Z,14.20
2023-04-07T03:35:48.720Z,14.70
2023-04-07T03:36:48.992Z,15.00
2023-04-07T03:37:48.667Z,15.40
2023-04-07T03:38:48.691Z,15.00
2023-04-07T03:39:50.276Z,14.70
2023-04-07T03:40:48.745Z,14.70
2023-04-07T03:41:48.625Z,15.50
2023-04-07T03:42:48.633Z,15.00
2023-04-07T03:43:48.672Z,15.00
2023-04-07T03:44:48.643Z,14.50
2023-04-07T03:45:49.671Z,15.00
2023-04-07T03:46:48.862Z,15.20
2023-04-07T03:47:50.060Z,14.20
2023-04-07T03:48:48.555Z,14.40
2023-04-07T03:49:48.545Z,14.40
2023-04-07T03:50:48.568Z,15.50
2023-04-07T03:51:48.530Z,14.60
2023-04-07T03:52:48.524Z,14.40
2023-04-07T03:53:48.506Z,14.20
2023-04-07T03:54:48.522Z,13.60
2023-04-07T03:55:48.483Z,13.60
2023-04-07T03:56:48.469Z,14.50
2023-04-07T03:57:48.459Z,12.50
2023-04-07T03:58:48.469Z,13.10
2023-04-07T03:59:48.427Z,12.70
2023-04-07T04:00:48.422Z,12.60
2023-04-07T04:01:49.429Z,13.10
2023-04-07T04:02:48.451Z,12.80
2023-04-07T04:03:49.315Z,12.20
2023-04-07T04:04:48.418Z,12.90
2023-04-07T04:05:48.459Z,12.00
2023-04-07T04:06:49.325Z,12.60
2023-04-07T04:07:48.364Z,12.90
2023-04-07T04:08:48.328Z,11.90
2023-04-07T04:09:48.305Z,12.70
2023-04-07T04:10:48.343Z,11.80
2023-04-07T04:11:49.360Z,12.90
2023-04-07T04:12:48.281Z,11.90
2023-04-07T04:13:48.291Z,12.40
2023-04-07T04:14:48.272Z,11.70
2023-04-07T04:15:48.245Z,12.80
2023-04-07T04:16:50.256Z,12.50
2023-04-07T04:17:48.265Z,12.20
2023-04-07T04:18:48.252Z,12.60
2023-04-07T04:19:48.200Z,13.50
2023-04-07T04:20:48.193Z,13.10
2023-04-07T04:21:48.552Z,13.00
2023-04-07T04:22:48.172Z,12.00
2023-04-07T04:23:48.167Z,13.30
2023-04-07T04:24:48.167Z,12.70
2023-04-07T04:25:48.167Z,12.60
2023-04-07T04:26:48.162Z,11.80
2023-04-07T04:27:48.145Z,12.20
2023-04-07T04:28:48.104Z,12.70
2023-04-07T04:29:48.092Z,12.80
2023-04-07T04:30:48.121Z,13.70
2023-04-07T04:31:48.155Z,11.90
2023-04-07T04:32:48.168Z,12.80
2023-04-07T04:33:48.056Z,12.40
2023-04-07T04:34:48.030Z,12.10
2023-04-07T04:35:48.194Z,12.40
2023-04-07T04:36:48.037Z,12.70
2023-04-07T04:37:48.066Z,11.90
2023-04-07T04:38:47.996Z,12.20
2023-04-07T04:39:47.997Z,12.00
2023-04-07T04:40:48.001Z,12.70
2023-04-07T04:41:47.960Z,12.70
2023-04-07T04:42:47.953Z,13.40
2023-04-07T04:43:48.118Z,12.50
2023-04-07T04:44:47.933Z,12.50
2023-04-07T04:45:47.922Z,12.10
2023-04-07T04:46:47.956Z,13.40
2023-04-07T04:47:47.952Z,12.90
2023-04-07T04:48:47.902Z,12.70
2023-04-07T04:49:47.939Z,12.60
2023-04-07T04:50:47.869Z,12.60
2023-04-07T04:51:47.854Z,12.70
2023-04-07T04:52:48.897Z,12.50
2023-04-07T04:53:47.846Z,12.50
2023-04-07T04:54:47.859Z,12.80
2023-04-07T04:55:47.852Z,12.10
2023-04-07T04:56:47.804Z,11.60
2023-04-07T04:57:47.781Z,11.90
2023-04-07T04:58:47.766Z,11.70
2023-04-07T04:59:47.800Z,11.80
2023-04-07T05:00:47.818Z,12.20
2023-04-07T05:01:47.903Z,11.70
2023-04-07T05:02:47.885Z,11.70
2023-04-07T05:03:47.848Z,11.50
2023-04-07T05:04:47.872Z,12.20
2023-04-07T05:05:47.704Z,12.70
2023-04-07T05:06:47.684Z,12.50
2023-04-07T05:07:47.666Z,11.70
2023-04-07T05:08:47.656Z,11.60
2023-04-07T05:09:47.641Z,12.10
2023-04-07T05:10:47.802Z,12.00
2023-04-07T05:11:47.770Z,12.20
2023-04-07T05:12:47.612Z,12.00
2023-04-07T05:13:47.597Z,11.30
2023-04-07T05:14:47.623Z,11.40
2023-04-07T05:15:47.634Z,12.50
2023-04-07T05:16:47.582Z,11.90
2023-04-07T05:17:47.653Z,11.50
2023-04-07T05:18:47.604Z,11.30
2023-04-07T05:19:47.536Z,10.90
2023-04-07T05:20:47.755Z,11.60
2023-04-07T05:21:47.520Z,11.20
2023-04-07T05:22:47.528Z,11.10
2023-04-07T05:23:47.505Z,11.50
2023-04-07T05:24:47.489Z,11.10
2023-04-07T05:25:47.472Z,11.50
2023-04-07T05:26:47.462Z,11.80
2023-04-07T05:27:47.483Z,11.80
2023-04-07T05:28:48.927Z,11.70
2023-04-07T05:29:47.429Z,12.10
2023-04-07T05:30:47.409Z,12.30
2023-04-07T05:31:47.449Z,11.60
2023-04-07T05:32:47.416Z,11.80
2023-04-07T05:33:48.764Z,11.70
2023-04-07T05:34:47.494Z,11.30
2023-04-07T05:35:48.364Z,11.10
2023-04-07T05:36:47.344Z,12.10
2023-04-07T05:37:48.795Z,11.50
2023-04-07T05:38:47.358Z,11.80
2023-04-07T05:39:47.344Z,11.40
2023-04-07T05:40:47.324Z,12.40
2023-04-07T05:41:48.743Z,11.70
2023-04-07T05:42:47.310Z,11.60
2023-04-07T05:43:47.270Z,11.40
2023-04-07T05:44:47.286Z,10.90
2023-04-07T05:45:47.315Z,10.80
2023-04-07T05:46:47.268Z,10.60
2023-04-07T05:47:47.415Z,11.70
2023-04-07T05:48:47.229Z,10.90
2023-04-07T05:49:47.259Z,10.40
2023-04-07T05:50:47.260Z,10.80
2023-04-07T05:51:48.778Z,10.50
2023-04-07T05:52:47.174Z,10.30
2023-04-07T05:53:47.162Z,10.90
2023-04-07T05:54:47.183Z,10.90
2023-04-07T05:55:48.132Z,10.50
2023-04-07T05:56:47.161Z,10.40
2023-04-07T05:57:48.581Z,9.80
2023-04-07T05:58:47.119Z,10.00
2023-04-07T05:59:47.299Z,10.40
2023-04-07T06:00:47.125Z,9.70
2023-04-07T06:01:47.105Z,10.10
2023-04-07T06:02:47.309Z,9.10
2023-04-07T06:03:47.283Z,9.70
2023-04-07T06:04:48.572Z,9.30
2023-04-07T06:05:47.040Z,9.70
2023-04-07T06:06:47.044Z,9.40
2023-04-07T06:07:47.016Z,9.40
2023-04-07T06:08:47.321Z,9.00
2023-04-07T06:09:48.441Z,9.40
2023-04-07T06:10:47.818Z,9.30
2023-04-07T06:11:46.963Z,8.90
2023-04-07T06:12:46.964Z,9.10
2023-04-07T06:13:47.390Z,9.00
2023-04-07T06:14:46.987Z,9.70
2023-04-07T06:15:48.380Z,10.10
2023-04-07T06:16:48.457Z,10.00
2023-04-07T06:17:46.914Z,9.60
2023-04-07T06:18:46.933Z,9.70
2023-04-07T06:19:46.872Z,9.30
2023-04-07T06:20:47.822Z,8.40
2023-04-07T06:21:46.850Z,8.50
2023-04-07T06:22:46.848Z,8.70
2023-04-07T06:23:47.096Z,9.00
2023-04-07T06:24:46.936Z,9.80
2023-04-07T06:25:46.830Z,10.40
2023-04-07T06:26:46.935Z,8.40
2023-04-07T06:27:46.799Z,9.20
2023-04-07T06:28:46.784Z,8.80
2023-04-07T06:29:46.803Z,9.20
2023-04-07T06:30:46.844Z,8.90
2023-04-07T06:31:46.935Z,9.70
2023-04-07T06:32:46.797Z,9.90
2023-04-07T06:33:47.106Z,9.70
2023-04-07T06:34:47.726Z,9.00
2023-04-07T06:35:46.719Z,9.30
2023-04-07T06:36:46.810Z,8.70
2023-04-07T06:37:46.684Z,11.00
2023-04-07T06:38:46.672Z,11.70
2023-04-07T06:39:46.646Z,22.60
2023-04-07T06:40:48.707Z,10.60
2023-04-07T06:41:46.632Z,9.30
2023-04-07T06:42:46.648Z,9.70
2023-04-07T06:43:46.809Z,10.20
2023-04-07T06:44:46.615Z,9.40
2023-04-07T06:45:46.650Z,9.20
2023-04-07T06:46:46.618Z,9.80
2023-04-07T06:47:46.616Z,9.60
2023-04-07T06:48:46.551Z,9.70
2023-04-07T06:49:46.586Z,8.80
2023-04-07T06:50:46.550Z,8.40
2023-04-07T06:51:46.540Z,9.30
2023-04-07T06:52:47.468Z,9.30
2023-04-07T06:53:46.899Z,8.30
2023-04-07T06:54:46.649Z,8.80
2023-04-07T06:55:46.619Z,8.40
2023-04-07T06:56:46.482Z,9.30
2023-04-07T06:57:47.480Z,8.60
2023-04-07T06:58:46.449Z,8.70
2023-04-07T06:59:46.455Z,7.60
2023-04-07T07:00:46.468Z,8.80
2023-04-07T07:01:46.445Z,8.80
2023-04-07T07:02:47.198Z,8.90
2023-04-07T07:03:46.642Z,8.90
2023-04-07T07:04:46.437Z,8.20
2023-04-07T07:05:46.399Z,8.40
2023-04-07T07:06:47.192Z,8.10
2023-04-07T07:07:46.384Z,8.40
2023-04-07T07:08:46.358Z,8.00
2023-04-07T07:09:46.350Z,8.00
2023-04-07T07:10:46.350Z,7.60
2023-04-07T07:11:46.324Z,7.50
2023-04-07T07:12:46.344Z,8.30
2023-04-07T07:13:46.727Z,7.90
2023-04-07T07:14:46.326Z,8.90
2023-04-07T07:15:46.306Z,8.50
2023-04-07T07:16:46.268Z,8.40
2023-04-07T07:17:46.335Z,8.30
2023-04-07T07:18:46.250Z,8.20
2023-04-07T07:19:46.257Z,7.90
2023-04-07T07:20:46.228Z,8.30
2023-04-07T07:21:46.250Z,8.80
2023-04-07T07:22:46.175Z,8.90
2023-04-07T07:23:46.412Z,8.30
2023-04-07T07:24:46.196Z,7.90
2023-04-07T07:25:46.157Z,8.50
2023-04-07T07:26:46.134Z,7.80
2023-04-07T07:27:46.154Z,8.10
2023-04-07T07:28:46.107Z,8.10
2023-04-07T07:29:46.130Z,8.60
2023-04-07T07:30:46.150Z,8.50
2023-04-07T07:31:46.078Z,8.10
2023-04-07T07:32:46.111Z,8.00
2023-04-07T07:33:46.312Z,7.90
2023-04-07T07:34:46.061Z,8.10
2023-04-07T07:35:46.123Z,8.10
2023-04-07T07:36:46.051Z,7.70
2023-04-07T07:37:47.052Z,8.40
2023-04-07T07:38:46.016Z,7.60
2023-04-07T07:39:46.023Z,8.30
2023-04-07T07:40:45.976Z,7.50
2023-04-07T07:41:45.995Z,7.70
2023-04-07T07:42:45.995Z,8.30
2023-04-07T07:43:46.189Z,8.00
2023-04-07T07:44:45.946Z,8.20
2023-04-07T07:45:46.038Z,8.40
2023-04-07T07:46:45.934Z,8.10
2023-04-07T07:47:45.969Z,7.90
2023-04-07T07:48:45.994Z,9.40
2023-04-07T07:49:45.897Z,8.70
2023-04-07T07:50:45.878Z,8.90
2023-04-07T07:51:45.873Z,8.70
2023-04-07T07:52:45.879Z,9.30
2023-04-07T07:53:46.217Z,8.70
2023-04-07T07:54:45.831Z,9.30
2023-04-07T07:55:46.785Z,8.70
2023-04-07T07:56:45.813Z,9.80
2023-04-07T07:57:45.808Z,9.50
2023-04-07T07:58:45.840Z,9.00
2023-04-07T07:59:45.793Z,9.20
2023-04-07T08:00:45.776Z,10.10
2023-04-07T08:01:45.819Z,9.90
2023-04-07T08:02:45.882Z,9.40
2023-04-07T08:04:45.796Z,9.80
2023-04-07T08:05:45.748Z,10.30
2023-04-07T08:06:45.822Z,9.60
2023-04-07T08:07:45.723Z,9.50
2023-04-07T08:08:45.669Z,9.30
2023-04-07T08:09:45.676Z,9.70
2023-04-07T08:10:45.658Z,9.20
2023-04-07T08:11:45.696Z,10.60
2023-04-07T08:12:45.637Z,9.70
2023-04-07T08:13:46.078Z,9.80
2023-04-07T08:14:45.612Z,9.60
2023-04-07T08:15:45.654Z,9.70
2023-04-07T08:16:45.701Z,10.50
2023-04-07T08:17:45.612Z,9.70
2023-04-07T08:18:45.868Z,10.30
2023-04-07T08:19:45.689Z,9.50
2023-04-07T08:20:45.533Z,10.00
2023-04-07T08:21:45.552Z,9.30
2023-04-07T08:22:45.569Z,10.80
2023-04-07T08:23:45.626Z,10.40
2023-04-07T08:24:47.057Z,10.20
2023-04-07T08:25:45.508Z,10.10
2023-04-07T08:26:45.475Z,10.60
2023-04-07T08:27:45.493Z,10.50
2023-04-07T08:28:45.447Z,10.70
2023-04-07T08:29:46.945Z,11.50
2023-04-07T08:30:45.430Z,11.30
2023-04-07T08:31:45.665Z,11.70
2023-04-07T08:32:45.501Z,11.00
2023-04-07T08:33:45.516Z,11.40
2023-04-07T08:34:45.403Z,11.60
2023-04-07T08:35:45.417Z,11.20
2023-04-07T08:36:45.364Z,11.30
2023-04-07T08:37:45.542Z,11.80
2023-04-07T08:38:45.443Z,11.90
2023-04-07T08:39:45.360Z,11.00
2023-04-07T08:40:45.327Z,11.00
2023-04-07T08:41:46.771Z,10.70
2023-04-07T08:42:45.891Z,10.20
2023-04-07T08:43:45.307Z,10.50
2023-04-07T08:44:45.830Z,10.50
2023-04-07T08:45:45.288Z,10.50
2023-04-07T08:46:45.279Z,10.40
2023-04-07T08:47:45.369Z,10.60
2023-04-07T08:48:45.235Z,10.10
2023-04-07T08:49:45.450Z,10.50
2023-04-07T08:50:45.270Z,10.50
2023-04-07T08:51:45.216Z,10.20
2023-04-07T08:52:45.783Z,10.80
2023-04-07T08:53:45.220Z,10.00
2023-04-07T08:54:45.190Z,9.90
2023-04-07T08:55:45.969Z,10.20
2023-04-07T08:56:45.139Z,9.90
2023-04-07T08:57:45.961Z,9.40
2023-04-07T08:58:45.142Z,10.00
2023-04-07T08:59:45.123Z,9.60
2023-04-07T09:00:45.130Z,9.70
2023-04-07T09:01:46.216Z,10.00
2023-04-07T09:02:45.172Z,9.50
2023-04-07T09:03:46.481Z,10.10
2023-04-07T09:04:45.054Z,9.60
2023-04-07T09:05:45.074Z,10.20
2023-04-07T09:06:45.278Z,9.40
2023-04-07T09:07:45.027Z,9.50
2023-04-07T09:08:45.009Z,10.00
2023-04-07T09:09:45.019Z,9.80
2023-04-07T09:10:45.029Z,9.30
2023-04-07T09:11:45.039Z,9.50
2023-04-07T09:12:44.968Z,9.20
2023-04-07T09:13:45.127Z,9.40
2023-04-07T09:14:44.949Z,10.10
2023-04-07T09:15:45.123Z,10.10
2023-04-07T09:16:44.966Z,10.20
2023-04-07T09:17:45.092Z,9.50
2023-04-07T09:18:44.896Z,10.10
2023-04-07T09:19:44.888Z,10.30
2023-04-07T09:20:45.730Z,9.40
2023-04-07T09:21:44.926Z,10.00
2023-04-07T09:22:44.860Z,9.90
2023-04-07T09:23:44.861Z,9.70
2023-04-07T09:24:44.833Z,9.80
2023-04-07T09:25:44.818Z,9.80
2023-04-07T09:26:47.074Z,11.00
2023-04-07T09:27:44.812Z,10.10
2023-04-07T09:28:44.819Z,9.40
2023-04-07T09:29:46.776Z,9.40
2023-04-07T09:30:44.771Z,9.00
2023-04-07T09:31:44.803Z,9.90
2023-04-07T09:32:44.785Z,9.50
2023-04-07T09:33:44.756Z,10.20
2023-04-07T09:34:44.727Z,9.70
2023-04-07T09:35:44.766Z,9.50
2023-04-07T09:36:44.731Z,9.30
2023-04-07T09:37:44.702Z,9.60
2023-04-07T09:38:44.812Z,9.60
2023-04-07T09:39:44.678Z,9.90
2023-04-07T09:40:44.688Z,9.90
2023-04-07T09:41:44.783Z,9.50
2023-04-07T09:42:45.581Z,9.30
2023-04-07T09:43:44.646Z,9.30
2023-04-07T09:44:44.670Z,9.40
2023-04-07T09:45:44.621Z,8.90
2023-04-07T09:46:44.621Z,9.40
2023-04-07T09:47:44.631Z,9.30
2023-04-07T09:48:44.563Z,9.20
2023-04-07T09:49:44.584Z,9.60
2023-04-07T09:50:44.575Z,9.70
2023-04-07T09:51:44.577Z,10.50
2023-04-07T09:52:45.594Z,9.40
2023-04-07T09:53:44.527Z,9.80
2023-04-07T09:54:44.495Z,9.90
2023-04-07T09:55:44.516Z,9.80
2023-04-07T09:56:44.497Z,10.80
2023-04-07T09:57:44.495Z,11.00
2023-04-07T09:58:44.457Z,10.90
2023-04-07T09:59:44.474Z,10.70
2023-04-07T10:00:44.588Z,10.40
2023-04-07T10:01:45.105Z,11.10
2023-04-07T10:02:44.548Z,11.40
2023-04-07T10:03:44.498Z,11.00
2023-04-07T10:04:44.439Z,10.70
2023-04-07T10:05:44.410Z,10.90
2023-04-07T10:06:45.334Z,10.30
2023-04-07T10:07:44.445Z,10.40
2023-04-07T10:08:44.410Z,10.30
2023-04-07T10:09:44.357Z,10.90
2023-04-07T10:10:45.152Z,10.90
2023-04-07T10:11:44.323Z,10.90
2023-04-07T10:12:44.308Z,11.20
2023-04-07T10:13:44.298Z,11.00
2023-04-07T10:14:44.289Z,10.30
2023-04-07T10:15:44.292Z,11.10
2023-04-07T10:16:44.814Z,11.20
2023-04-07T10:17:44.307Z,10.80
2023-04-07T10:18:45.309Z,10.50
2023-04-07T10:19:44.254Z,10.60
2023-04-07T10:20:44.232Z,11.40
2023-04-07T10:21:45.671Z,10.30
2023-04-07T10:22:44.200Z,10.30
2023-04-07T10:23:45.043Z,10.40
2023-04-07T10:24:44.190Z,10.50
2023-04-07T10:25:44.190Z,10.40
2023-04-07T10:26:44.190Z,9.60
2023-04-07T10:27:44.938Z,9.30
2023-04-07T10:28:45.100Z,9.30
2023-04-07T10:29:44.146Z,10.20
2023-04-07T10:30:44.936Z,9.00
2023-04-07T10:31:44.107Z,9.70
2023-04-07T10:32:44.321Z,9.00
2023-04-07T10:33:44.074Z,9.40
2023-04-07T10:34:44.296Z,9.00
2023-04-07T10:35:44.726Z,9.60
2023-04-07T10:36:44.037Z,8.20
2023-04-07T10:37:44.061Z,9.10
2023-04-07T10:38:44.020Z,8.90
2023-04-07T10:39:44.026Z,8.70
2023-04-07T10:40:44.016Z,8.60
2023-04-07T10:41:44.178Z,7.90
2023-04-07T10:42:45.426Z,8.20
2023-04-07T10:43:44.231Z,9.10
2023-04-07T10:44:45.937Z,7.60
2023-04-07T10:45:44.044Z,7.70
2023-04-07T10:46:44.312Z,7.80
2023-04-07T10:47:44.524Z,8.30
2023-04-07T10:48:43.933Z,8.00
2023-04-07T10:49:44.904Z,7.90
2023-04-07T10:50:43.982Z,7.10
2023-04-07T10:51:45.352Z,7.40
2023-04-07T10:52:44.677Z,7.80
2023-04-07T10:53:44.677Z,7.40
2023-04-07T10:54:45.299Z,7.40
2023-04-07T10:55:45.330Z,7.50
2023-04-07T10:56:43.829Z,7.00
2023-04-07T10:57:44.700Z,6.60
2023-04-07T10:58:43.818Z,6.90
2023-04-07T10:59:43.795Z,6.00
2023-04-07T11:00:43.873Z,6.60
2023-04-07T11:01:43.941Z,6.30
2023-04-07T11:02:44.104Z,6.50
2023-04-07T11:03:43.817Z,6.50
2023-04-07T11:04:43.839Z,6.60
2023-04-07T11:05:43.923Z,6.00
2023-04-07T11:06:44.574Z,6.40
2023-04-07T11:07:45.172Z,6.90
2023-04-07T11:08:43.692Z,6.30
2023-04-07T11:09:45.678Z,5.80
2023-04-07T11:10:43.663Z,6.60
2023-04-07T11:11:43.662Z,6.30
2023-04-07T11:12:43.653Z,6.10
2023-04-07T11:13:44.588Z,6.10
2023-04-07T11:14:44.437Z,6.60
2023-04-07T11:15:45.160Z,5.80
2023-04-07T11:16:43.661Z,6.20
2023-04-07T11:17:44.399Z,6.30
2023-04-07T11:18:43.584Z,6.70
2023-04-07T11:19:43.659Z,6.80
2023-04-07T11:20:46.096Z,7.00
2023-04-07T11:21:43.597Z,6.70
2023-04-07T11:22:43.658Z,6.30
2023-04-07T11:23:43.533Z,6.10
2023-04-07T11:24:43.501Z,6.60
2023-04-07T11:25:43.776Z,6.80
2023-04-07T11:26:43.523Z,6.90
2023-04-07T11:27:43.584Z,6.70
2023-04-07T11:28:43.475Z,7.00
2023-04-07T11:29:43.469Z,6.80
2023-04-07T11:30:43.492Z,6.30
2023-04-07T11:31:45.022Z,7.20
2023-04-07T11:32:43.482Z,7.20
2023-04-07T11:33:43.461Z,6.50
2023-04-07T11:34:43.467Z,6.70
2023-04-07T11:35:43.399Z,6.30
2023-04-07T11:36:44.193Z,7.00
2023-04-07T11:37:43.548Z,6.90
2023-04-07T11:38:44.885Z,5.90
2023-04-07T11:39:43.402Z,6.10
2023-04-07T11:40:43.367Z,6.40
2023-04-07T11:41:43.319Z,6.50
2023-04-07T11:42:43.363Z,6.30
2023-04-07T11:43:43.407Z,6.10
2023-04-07T11:44:43.355Z,6.20
2023-04-07T11:45:43.288Z,7.20
2023-04-07T11:46:43.289Z,7.20
2023-04-07T11:47:43.332Z,7.10
2023-04-07T11:48:43.280Z,6.10
2023-04-07T11:49:43.359Z,7.00
2023-04-07T11:50:43.373Z,6.10
2023-04-07T11:51:44.680Z,7.00
2023-04-07T11:52:44.733Z,6.70
2023-04-07T11:53:43.192Z,5.90
2023-04-07T11:54:44.649Z,6.90
2023-04-07T11:55:43.193Z,7.00
2023-04-07T11:56:44.690Z,6.70
2023-04-07T11:57:44.606Z,7.10
2023-04-07T11:58:43.153Z,6.80
2023-04-07T11:59:43.506Z,7.30
2023-04-07T12:00:43.953Z,6.70
2023-04-07T12:01:44.594Z,7.50
2023-04-07T12:02:43.490Z,7.10
2023-04-07T12:03:43.530Z,7.70
2023-04-07T12:04:43.434Z,7.00
2023-04-07T12:05:43.197Z,7.00
2023-04-07T12:06:43.118Z,7.30
2023-04-07T12:07:43.027Z,6.90
2023-04-07T12:08:43.053Z,6.70
2023-04-07T12:09:43.039Z,7.50
2023-04-07T12:10:43.000Z,8.00
2023-04-07T12:11:42.991Z,8.10
2023-04-07T12:12:43.062Z,8.50
2023-04-07T12:13:42.955Z,7.50
2023-04-07T12:14:42.992Z,7.80
2023-04-07T12:15:42.949Z,8.20
2023-04-07T12:16:43.006Z,8.00
2023-04-07T12:17:43.441Z,8.70
2023-04-07T12:18:42.918Z,8.50
2023-04-07T12:19:42.907Z,9.30
2023-04-07T12:20:42.883Z,9.50
2023-04-07T12:21:42.859Z,9.30
2023-04-07T12:22:42.875Z,10.20
2023-04-07T12:23:42.871Z,9.80
2023-04-07T12:24:42.841Z,9.60
2023-04-07T12:25:43.798Z,9.40
2023-04-07T12:26:42.819Z,9.70
2023-04-07T12:27:43.957Z,9.80
2023-04-07T12:28:42.905Z,9.10
2023-04-07T12:29:42.786Z,9.50
2023-04-07T12:30:43.728Z,9.40
2023-04-07T12:31:42.800Z,9.30
2023-04-07T12:32:44.276Z,9.80
2023-04-07T12:33:42.986Z,9.90
2023-04-07T12:34:42.731Z,9.20
2023-04-07T12:35:42.782Z,10.20
2023-04-07T12:36:42.725Z,9.40
2023-04-07T12:37:44.182Z,9.70
2023-04-07T12:38:42.675Z,9.80
2023-04-07T12:39:42.712Z,9.30
2023-04-07T12:40:42.676Z,9.50
2023-04-07T12:41:42.652Z,10.60
2023-04-07T12:42:42.653Z,9.20
2023-04-07T12:43:42.661Z,10.80
2023-04-07T12:44:42.739Z,10.00
2023-04-07T12:45:43.599Z,11.00
2023-04-07T12:46:42.599Z,9.50
2023-04-07T12:47:42.667Z,8.90
2023-04-07T12:48:42.571Z,9.00
2023-04-07T12:49:42.566Z,9.50
2023-04-07T12:50:42.563Z,10.10
2023-04-07T12:51:42.544Z,9.40
2023-04-07T12:52:42.543Z,8.50
2023-04-07T12:53:42.568Z,9.00
2023-04-07T12:54:42.504Z,9.00
2023-04-07T12:55:42.496Z,8.60
2023-04-07T12:56:42.496Z,8.90
2023-04-07T12:57:42.473Z,9.20
2023-04-07T12:58:42.482Z,9.50
2023-04-07T12:59:42.467Z,9.20
2023-04-07T13:00:42.450Z,8.70
2023-04-07T13:01:42.496Z,9.20
2023-04-07T13:02:42.573Z,8.70
2023-04-07T13:03:42.537Z,9.10
2023-04-07T13:04:42.426Z,9.40